createdAt,value
2018-09-01T00:00:09.290Z,101638.19
2018-09-01T00:02:38.300Z,101628.05
2018-09-01T00:05:07.031Z,101630.30
2018-09-01T00:07:35.701Z,101627.64
2018-09-01T00:10:05.238Z,101633.04
2018-09-01T00:12:33.993Z,101635.53
2018-09-01T00:15:03.115Z,101633.28
2018-09-01T00:17:32.199Z,101630.21
2018-09-01T00:20:02.331Z,101630.21
2018-09-01T00:22:31.119Z,101632.88
2018-09-01T00:25:00.222Z,101632.79
2018-09-01T00:27:28.798Z,101633.66
2018-09-01T00:29:57.625Z,101632.70
2018-09-01T00:32:26.390Z,101631.45
2018-09-01T00:34:55.702Z,101648.12
2018-09-01T00:37:29.905Z,101640.52
2018-09-01T00:39:58.946Z,101636.70
2018-09-01T00:42:27.587Z,101639.44
2018-09-01T00:44:56.765Z,101581.89
2018-09-01T00:47:25.406Z,101628.34
2018-09-01T00:49:55.179Z,101627.47
2018-09-01T00:52:23.918Z,101630.91
2018-09-01T00:54:52.862Z,101632.16
2018-09-01T00:57:21.454Z,101630.28
2018-09-01T00:59:50.413Z,101639.02
2018-09-01T01:02:19.257Z,101637.14
2018-09-01T01:04:48.124Z,101640.34
2018-09-01T01:09:43.799Z,101640.76
2018-09-01T01:12:13.166Z,101652.48
2018-09-01T01:14:41.790Z,101643.09
2018-09-01T01:17:11.499Z,101645.58
2018-09-01T01:19:41.100Z,101649.98
2018-09-01T01:22:09.838Z,101649.11
2018-09-01T01:24:38.752Z,101650.07
2018-09-01T01:27:07.492Z,101656.06
2018-09-01T01:29:36.222Z,101654.81
2018-09-01T01:32:04.994Z,101651.78
2018-09-01T01:34:33.756Z,101644.34
2018-09-01T01:37:02.442Z,101657.80
2018-09-01T01:39:31.365Z,101658.38
2018-09-01T01:41:59.970Z,101658.22
2018-09-01T01:44:29.303Z,101658.59
2018-09-01T01:46:58.106Z,101664.29
2018-09-01T01:49:27.658Z,101664.29
2018-09-01T01:51:56.370Z,101666.03
2018-09-01T01:54:25.457Z,101665.25
2018-09-01T01:56:54.174Z,101669.70
2018-09-01T01:59:22.929Z,101664.70
2018-09-01T02:01:51.814Z,101664.29
2018-09-01T02:04:20.469Z,101668.86
2018-09-01T02:06:49.117Z,101666.73
2018-09-01T02:09:17.667Z,101663.13
2018-09-01T02:11:46.644Z,101662.91
2018-09-01T02:14:15.487Z,101666.36
2018-09-01T02:16:44.450Z,101666.20
2018-09-01T02:19:13.252Z,101668.69
2018-09-01T02:21:42.377Z,101666.95
2018-09-01T02:24:11.159Z,101666.95
2018-09-01T02:26:39.844Z,101671.89
2018-09-01T02:29:08.594Z,101660.59
2018-09-01T02:31:37.439Z,101685.48
2018-09-01T02:34:06.230Z,101661.21
2018-09-01T02:36:35.073Z,101677.59
2018-09-01T02:39:06.051Z,101668.86
2018-09-01T02:41:34.662Z,101677.76
2018-09-01T02:44:04.514Z,101679.50
2018-09-01T02:46:33.347Z,101678.80
2018-09-01T02:49:02.596Z,101673.31
2018-09-01T02:51:31.487Z,101678.46
2018-09-01T02:54:01.446Z,101674.84
2018-09-01T02:56:30.215Z,101676.84
2018-09-01T02:58:59.590Z,101620.23
2018-09-01T03:01:37.254Z,101676.42
2018-09-01T03:04:07.231Z,101681.37
2018-09-01T03:06:47.355Z,101681.91
2018-09-01T03:09:16.228Z,101677.09
2018-09-01T03:11:45.464Z,101669.78
2018-09-01T03:14:14.066Z,101678.92
2018-09-01T03:16:42.840Z,101680.25
2018-09-01T03:19:11.502Z,101679.33
2018-09-01T03:21:40.327Z,101683.08
2018-09-01T03:24:08.978Z,101668.56
2018-09-01T03:26:37.643Z,101687.48
2018-09-01T03:29:07.132Z,101687.86
2018-09-01T03:31:36.178Z,101691.63
2018-09-01T03:34:05.759Z,101643.13
2018-09-01T03:36:34.594Z,101692.80
2018-09-01T03:39:05.454Z,101687.56
2018-09-01T03:41:34.068Z,101688.40
2018-09-01T03:44:03.676Z,101684.98
2018-09-01T03:46:32.382Z,101691.80
2018-09-01T03:49:02.354Z,101635.61
2018-09-01T03:51:31.126Z,101693.50
2018-09-01T03:54:00.312Z,101693.88
2018-09-01T03:56:29.150Z,101695.63
2018-09-01T03:58:58.011Z,101699.78
2018-09-01T04:01:26.814Z,101704.61
2018-09-01T04:03:55.568Z,101704.52
2018-09-01T04:06:24.180Z,101674.37
2018-09-01T04:08:52.914Z,101705.85
2018-09-01T04:11:22.942Z,101618.60
2018-09-01T04:13:51.566Z,101708.89
2018-09-01T04:16:20.673Z,101715.08
2018-09-01T04:18:49.266Z,101716.58
2018-09-01T04:21:18.767Z,101721.11
2018-09-01T04:23:47.555Z,101720.89
2018-09-01T04:26:16.482Z,101718.78
2018-09-01T04:28:45.197Z,101711.66
2018-09-01T04:31:14.056Z,101712.50
2018-09-01T04:33:42.734Z,101715.16
2018-09-01T04:36:11.552Z,101718.61
2018-09-01T04:38:40.453Z,101722.06
2018-09-01T04:41:09.174Z,101726.81
2018-09-01T04:43:38.229Z,101725.97
2018-09-01T04:46:07.000Z,101726.43
2018-09-01T04:48:35.730Z,101678.94
2018-09-01T04:51:04.527Z,101716.49
2018-09-01T04:53:34.180Z,101726.59
2018-09-01T04:56:02.845Z,101727.46
2018-09-01T04:58:32.698Z,101637.74
2018-09-01T05:01:01.418Z,101731.91
2018-09-01T05:03:30.310Z,101726.97
2018-09-01T05:05:59.102Z,101731.13
2018-09-01T05:08:27.709Z,101741.52
2018-09-01T05:10:56.380Z,101738.40
2018-09-01T05:13:25.178Z,101744.09
2018-09-01T05:15:53.714Z,101744.09
2018-09-01T05:18:22.362Z,101743.34
2018-09-01T05:20:51.922Z,101694.97
2018-09-01T05:23:20.653Z,101754.58
2018-09-01T05:25:50.846Z,101748.72
2018-09-01T05:28:19.666Z,101752.16
2018-09-01T05:30:48.713Z,101768.21
2018-09-01T05:33:17.362Z,101755.99
2018-09-01T05:35:47.338Z,101754.09
2018-09-01T05:38:16.353Z,101754.09
2018-09-01T05:40:45.820Z,101760.36
2018-09-01T05:43:14.726Z,101760.36
2018-09-01T05:45:43.540Z,101761.69
2018-09-01T05:48:12.194Z,101768.56
2018-09-01T05:50:40.932Z,101762.98
2018-09-01T05:53:09.702Z,101665.64
2018-09-01T05:55:38.454Z,101771.52
2018-09-01T05:58:08.043Z,101769.23
2018-09-01T06:00:38.084Z,101772.68
2018-09-01T06:03:07.852Z,101775.55
2018-09-01T06:05:36.702Z,101774.60
2018-09-01T06:08:05.776Z,101671.83
2018-09-01T06:10:34.386Z,101778.59
2018-09-01T06:13:04.179Z,101733.45
2018-09-01T06:15:32.872Z,101781.25
2018-09-01T06:18:02.887Z,101682.69
2018-09-01T06:20:31.535Z,101782.05
2018-09-01T06:23:00.213Z,101785.33
2018-09-01T06:25:29.005Z,101795.40
2018-09-01T06:28:01.853Z,101793.52
2018-09-01T06:30:40.113Z,101788.58
2018-09-01T06:33:08.921Z,101793.90
2018-09-01T06:35:38.127Z,101789.98
2018-09-01T06:38:06.993Z,101794.36
2018-09-01T06:40:37.092Z,101802.63
2018-09-01T06:43:05.859Z,101796.94
2018-09-01T06:45:34.976Z,101802.17
2018-09-01T06:48:03.502Z,101794.80
2018-09-01T06:50:34.666Z,101682.53
2018-09-01T06:53:03.962Z,101778.66
2018-09-01T06:55:32.858Z,101779.91
2018-09-01T06:58:01.608Z,101781.48
2018-09-01T07:00:31.797Z,101737.95
2018-09-01T07:03:01.070Z,101781.69
2018-09-01T07:05:31.074Z,101781.38
2018-09-01T07:07:59.953Z,101781.83
2018-09-01T07:10:29.051Z,101784.34
2018-09-01T07:12:57.783Z,101788.17
2018-09-01T07:15:26.999Z,101799.19
2018-09-01T07:17:55.683Z,101791.19
2018-09-01T07:20:24.829Z,101803.42
2018-09-01T07:22:54.210Z,101808.25
2018-09-01T07:25:23.057Z,101803.89
2018-09-01T07:27:51.745Z,101805.45
2018-09-01T07:30:20.655Z,101805.09
2018-09-01T07:32:49.654Z,101815.62
2018-09-01T07:35:18.361Z,101807.72
2018-09-01T07:37:47.835Z,101810.98
2018-09-01T07:40:16.847Z,101814.19
2018-09-01T07:42:46.307Z,101811.80
2018-09-01T07:45:15.142Z,101814.29
2018-09-01T07:47:44.190Z,101810.51
2018-09-01T07:50:12.965Z,101809.86
2018-09-01T07:52:42.278Z,101822.70
2018-09-01T07:55:11.182Z,101823.48
2018-09-01T07:57:40.777Z,101827.28
2018-09-01T08:00:11.595Z,101833.22
2018-09-01T08:05:28.773Z,101775.03
2018-09-01T08:07:59.856Z,101833.98
2018-09-01T08:10:29.760Z,101849.23
2018-09-01T08:12:58.402Z,101852.09
2018-09-01T08:15:32.278Z,101800.22
2018-09-01T08:18:01.306Z,101846.77
2018-09-01T08:20:32.617Z,101846.55
2018-09-01T08:23:06.202Z,101846.66
2018-09-01T08:25:35.058Z,101848.09
2018-09-01T08:28:03.870Z,101852.85
2018-09-01T08:30:32.584Z,101855.00
2018-09-01T08:33:01.626Z,101860.65
2018-09-01T08:35:30.336Z,101853.77
2018-09-01T08:38:06.394Z,101851.63
2018-09-01T08:40:36.898Z,101806.47
2018-09-01T08:43:06.298Z,101857.81
2018-09-01T08:45:36.015Z,101858.85
2018-09-01T08:48:04.935Z,101864.16
2018-09-01T08:50:34.979Z,101861.41
2018-09-01T08:53:07.411Z,101861.66
2018-09-01T08:55:36.043Z,101860.66
2018-09-01T08:58:06.040Z,101860.14
2018-09-01T09:00:34.758Z,101858.09
2018-09-01T09:03:06.242Z,101861.70
2018-09-01T09:05:35.423Z,101857.05
2018-09-01T09:08:04.638Z,101752.77
2018-09-01T09:10:33.578Z,101846.41
2018-09-01T09:13:03.695Z,101847.33
2018-09-01T09:15:32.463Z,101847.75
2018-09-01T09:18:01.782Z,101855.36
2018-09-01T09:20:30.585Z,101852.50
2018-09-01T09:23:01.426Z,101852.47
2018-09-01T09:25:30.110Z,101851.62
2018-09-01T09:28:00.290Z,101862.63
2018-09-01T09:30:29.076Z,101869.33
2018-09-01T09:32:58.514Z,101862.31
2018-09-01T09:35:27.962Z,101868.47
2018-09-01T09:38:12.204Z,101867.48
2018-09-01T09:40:41.006Z,101870.85
2018-09-01T09:43:10.306Z,101871.76
2018-09-01T09:45:39.210Z,101863.49
2018-09-01T09:48:13.282Z,101867.19
2018-09-01T09:50:43.712Z,101829.22
2018-09-01T09:53:12.467Z,101868.61
2018-09-01T09:55:43.293Z,101869.52
2018-09-01T09:58:12.298Z,101880.45
2018-09-01T10:00:47.022Z,101881.37
2018-09-01T10:03:17.001Z,101875.41
2018-09-01T10:05:47.478Z,101876.75
2018-09-01T10:08:19.105Z,101872.73
2018-09-01T10:10:47.869Z,101876.06
2018-09-01T10:13:19.455Z,101881.01
2018-09-01T10:15:48.882Z,101884.84
2018-09-01T10:18:18.760Z,101891.73
2018-09-01T10:20:48.645Z,101882.66
2018-09-01T10:23:19.044Z,101891.52
2018-09-01T10:25:48.565Z,101879.70
2018-09-01T10:28:32.351Z,101886.73
2018-09-01T10:31:02.264Z,101878.23
2018-09-01T10:33:30.886Z,101881.86
2018-09-01T10:36:01.612Z,101891.93
2018-09-01T10:38:33.654Z,101893.84
2018-09-01T10:41:02.706Z,101893.21
2018-09-01T10:43:33.181Z,101897.59
2018-09-01T10:46:02.060Z,101899.16
2018-09-01T10:48:31.689Z,101905.36
2018-09-01T10:51:00.300Z,101909.15
2018-09-01T10:53:29.651Z,101910.25
2018-09-01T10:55:58.270Z,101905.77
2018-09-01T10:58:27.361Z,101901.55
2018-09-01T11:00:57.992Z,101875.75
2018-09-01T11:03:27.368Z,101909.30
2018-09-01T11:05:56.522Z,101910.05
2018-09-01T11:08:25.882Z,101911.87
2018-09-01T11:10:56.383Z,101903.69
2018-09-01T11:13:25.602Z,101913.09
2018-09-01T11:15:54.448Z,101866.22
2018-09-01T11:18:23.352Z,101922.98
2018-09-01T11:20:52.486Z,101912.38
2018-09-01T11:23:22.079Z,101917.04
2018-09-01T11:25:50.967Z,101916.56
2018-09-01T11:28:20.016Z,101916.08
2018-09-01T11:30:49.143Z,101922.77
2018-09-01T11:33:18.010Z,101923.88
2018-09-01T11:35:51.883Z,101926.06
2018-09-01T11:38:26.118Z,101871.48
2018-09-01T11:40:56.019Z,101932.42
2018-09-01T11:43:24.894Z,101932.19
2018-09-01T11:45:54.228Z,101937.84
2018-09-01T11:48:23.274Z,101934.91
2018-09-01T11:50:52.220Z,101932.23
2018-09-01T11:53:21.539Z,101932.72
2018-09-01T11:55:51.045Z,101933.83
2018-09-01T11:58:19.955Z,101934.55
2018-09-01T12:00:49.162Z,101936.39
2018-09-01T12:03:17.815Z,101938.34
2018-09-01T12:05:46.523Z,101932.84
2018-09-01T12:08:15.892Z,101935.14
2018-09-01T12:10:44.934Z,101926.84
2018-09-01T12:13:13.627Z,101922.91
2018-09-01T12:15:42.474Z,101924.63
2018-09-01T12:18:11.594Z,101926.81
2018-09-01T12:20:40.331Z,101925.02
2018-09-01T12:23:11.009Z,101921.71
2018-09-01T12:25:39.712Z,101924.28
2018-09-01T12:28:10.375Z,101922.06
2018-09-01T12:30:39.559Z,101923.90
2018-09-01T12:33:09.505Z,101888.69
2018-09-01T12:35:42.946Z,101909.49
2018-09-01T12:38:12.250Z,101919.50
2018-09-01T12:40:41.286Z,101927.69
2018-09-01T12:43:10.054Z,101923.41
2018-09-01T12:45:39.014Z,101916.60
2018-09-01T12:48:08.006Z,101898.58
2018-09-01T12:50:36.935Z,101919.51
2018-09-01T12:53:06.465Z,101917.77
2018-09-01T12:55:35.540Z,101924.34
2018-09-01T12:58:07.482Z,101926.69
2018-09-01T13:00:44.261Z,101831.08
2018-09-01T13:03:14.079Z,101926.67
2018-09-01T13:05:42.706Z,101931.09
2018-09-01T13:08:17.074Z,101933.89
2018-09-01T13:10:46.090Z,101929.73
2018-09-01T13:13:15.411Z,101938.92
2018-09-01T13:15:48.167Z,101936.77
2018-09-01T13:18:25.176Z,101942.05
2018-09-01T13:21:09.194Z,101955.34
2018-09-01T13:23:41.170Z,101948.11
2018-09-01T13:26:11.509Z,101944.94
2018-09-01T13:28:46.847Z,101958.56
2018-09-01T13:31:19.140Z,101963.41
2018-09-01T13:33:59.226Z,101962.81
2018-09-01T13:36:35.745Z,101962.22
2018-09-01T13:39:05.390Z,101955.06
2018-09-01T13:41:34.488Z,101965.53
2018-09-01T13:46:55.351Z,101966.88
2018-09-01T13:49:36.686Z,101962.50
2018-09-01T13:52:06.755Z,101963.36
2018-09-01T13:54:36.206Z,101964.23
2018-09-01T13:57:21.798Z,101973.11
2018-09-01T13:59:50.470Z,101967.84
2018-09-01T14:02:19.057Z,101975.30
2018-09-01T14:04:48.114Z,101973.95
2018-09-01T14:10:09.839Z,101974.73
2018-09-01T14:12:40.538Z,101980.55
2018-09-01T14:15:20.916Z,101976.09
2018-09-01T14:17:49.572Z,101982.63
2018-09-01T14:20:21.164Z,101964.55
2018-09-01T14:22:51.635Z,101977.71
2018-09-01T14:25:21.482Z,101988.02
2018-09-01T14:28:00.653Z,101992.44
2018-09-01T14:30:29.622Z,101993.78
2018-09-01T14:32:58.374Z,101992.22
2018-09-01T14:35:29.214Z,101991.53
2018-09-01T14:38:06.067Z,101994.55
2018-09-01T14:40:35.122Z,101939.95
2018-09-01T14:43:08.017Z,101994.47
2018-09-01T14:45:37.012Z,101996.10
2018-09-01T14:48:06.248Z,101995.13
2018-09-01T14:50:36.078Z,102000.13
2018-09-01T14:53:06.858Z,102001.61
2018-09-01T14:55:36.570Z,101999.87
2018-09-01T14:58:05.870Z,102004.97
2018-09-01T15:00:36.810Z,102008.32
2018-09-01T15:03:11.147Z,102012.03
2018-09-01T15:05:47.639Z,102005.15
2018-09-01T15:08:28.417Z,102009.98
2018-09-01T15:10:57.741Z,102013.88
2018-09-01T15:13:29.729Z,102013.66
2018-09-01T15:16:00.924Z,102014.60
2018-09-01T15:18:45.672Z,102023.05
2018-09-01T15:23:57.890Z,102014.17
2018-09-01T15:26:27.294Z,102016.96
2018-09-01T15:28:56.724Z,102013.02
2018-09-01T15:31:26.326Z,102014.66
2018-09-01T15:34:07.431Z,102007.52
2018-09-01T15:36:36.224Z,102019.16
2018-09-01T15:42:00.016Z,102021.08
2018-09-01T15:44:30.535Z,102020.28
2018-09-01T15:46:59.815Z,102028.00
2018-09-01T15:49:30.182Z,102029.74
2018-09-01T15:51:58.974Z,102034.02
2018-09-01T15:54:29.276Z,102033.02
2018-09-01T15:57:02.469Z,102035.11
2018-09-01T15:59:32.294Z,101937.13
2018-09-01T16:02:01.327Z,102033.42
2018-09-01T16:04:34.468Z,101946.05
2018-09-01T16:07:03.758Z,102040.55
2018-09-01T16:09:37.014Z,102035.99
2018-09-01T16:12:07.166Z,102033.31
2018-09-01T16:14:36.003Z,102038.84
2018-09-01T16:17:07.146Z,101978.17
2018-09-01T16:19:37.109Z,102036.58
2018-09-01T16:22:11.032Z,102033.64
2018-09-01T16:24:45.117Z,102037.88
2018-09-01T16:27:14.914Z,102038.29
2018-09-01T16:29:44.342Z,102038.86
2018-09-01T16:32:17.735Z,102035.99
2018-09-01T16:34:47.717Z,102042.53
2018-09-01T16:37:19.186Z,102038.22
2018-09-01T16:39:48.690Z,102043.79
2018-09-01T16:42:17.723Z,102046.16
2018-09-01T16:44:47.475Z,102050.16
2018-09-01T16:47:16.197Z,102055.52
2018-09-01T16:49:45.641Z,102006.67
2018-09-01T16:52:14.602Z,102051.69
2018-09-01T16:54:43.807Z,102054.95
2018-09-01T16:57:12.894Z,102057.28
2018-09-01T16:59:42.371Z,102049.48
2018-09-01T17:02:11.388Z,102048.83
2018-09-01T17:04:46.274Z,102053.66
2018-09-01T17:07:15.142Z,102060.09
2018-09-01T17:09:47.906Z,102057.48
2018-09-01T17:12:20.055Z,102055.48
2018-09-01T17:14:50.085Z,102066.15
2018-09-01T17:17:28.620Z,102067.31
2018-09-01T17:19:57.695Z,102067.70
2018-09-01T17:22:29.146Z,102064.61
2018-09-01T17:24:57.924Z,102067.98
2018-09-01T17:27:28.402Z,102055.75
2018-09-01T17:30:00.890Z,102067.70
2018-09-01T17:32:30.986Z,102067.91
2018-09-01T17:35:07.437Z,102067.23
2018-09-01T17:37:44.579Z,102026.71
2018-09-01T17:40:20.173Z,102026.62
2018-09-01T17:42:51.638Z,102078.00
2018-09-01T17:45:21.262Z,102075.33
2018-09-01T17:48:00.421Z,102080.08
2018-09-01T17:50:29.136Z,102075.66
2018-09-01T17:53:02.177Z,102076.36
2018-09-01T17:55:30.995Z,102076.94
2018-09-01T17:58:08.593Z,102083.70
2018-09-01T18:00:37.524Z,102090.05
2018-09-01T18:03:06.628Z,102087.54
2018-09-01T18:05:41.350Z,102096.74
2018-09-01T18:08:10.655Z,102096.63
2018-09-01T18:10:40.198Z,102097.36
2018-09-01T18:13:14.383Z,102096.88
2018-09-01T18:15:43.627Z,102102.64
2018-09-01T18:18:24.577Z,102102.61
2018-09-01T18:20:53.941Z,102106.47
2018-09-01T18:23:34.032Z,102115.48
2018-09-01T18:26:02.947Z,102112.36
2018-09-01T18:28:31.937Z,102110.00
2018-09-01T18:31:01.223Z,102110.41
2018-09-01T18:33:38.750Z,102113.33
2018-09-01T18:36:07.709Z,102119.16
2018-09-01T18:38:37.867Z,102118.16
2018-09-01T18:41:08.326Z,102124.39
2018-09-01T18:43:44.491Z,102122.27
2018-09-01T18:46:14.864Z,102123.77
2018-09-01T18:48:51.887Z,102137.42
2018-09-01T18:51:22.726Z,102139.08
2018-09-01T18:54:08.947Z,102145.14
2018-09-01T18:56:39.150Z,102148.50
2018-09-01T18:59:08.194Z,102144.28
2018-09-01T19:01:38.809Z,102145.20
2018-09-01T19:04:07.800Z,102136.91
2018-09-01T19:06:50.770Z,102147.42
2018-09-01T19:09:20.502Z,102147.31
2018-09-01T19:11:54.466Z,102153.37
2018-09-01T19:14:34.708Z,102108.56
2018-09-01T19:17:20.974Z,102159.31
2018-09-01T19:19:50.246Z,102162.63
2018-09-01T19:22:36.416Z,102163.01
2018-09-01T19:25:07.185Z,102161.14
2018-09-01T19:27:37.990Z,102163.16
2018-09-01T19:32:45.990Z,102160.55
2018-09-01T19:35:14.957Z,102165.61
2018-09-01T19:37:46.170Z,102165.52
2018-09-01T19:40:18.108Z,102171.14
2018-09-01T19:42:48.391Z,102170.09
2018-09-01T19:45:17.819Z,102165.48
2018-09-01T19:47:47.573Z,102173.69
2018-09-01T19:50:16.578Z,102174.73
2018-09-01T19:52:45.402Z,102169.63
2018-09-01T19:55:14.356Z,102176.56
2018-09-01T19:57:46.146Z,102171.53
2018-09-01T20:00:16.155Z,102173.17
2018-09-01T20:02:45.477Z,102176.50
2018-09-01T20:05:15.701Z,102113.68
2018-09-01T20:07:44.465Z,102172.13
2018-09-01T20:10:14.584Z,102177.68
2018-09-01T20:12:43.902Z,102175.30
2018-09-01T20:15:20.147Z,102178.64
2018-09-01T20:17:49.771Z,102181.09
2018-09-01T20:20:18.586Z,102180.45
2018-09-01T20:22:51.187Z,102183.77
2018-09-01T20:25:20.763Z,102183.05
2018-09-01T20:27:53.831Z,102167.34
2018-09-01T20:30:29.921Z,102183.84
2018-09-01T20:33:00.661Z,102188.48
2018-09-01T20:35:37.846Z,102197.91
2018-09-01T20:38:07.248Z,102196.00
2018-09-01T20:43:28.633Z,102204.35
2018-09-01T20:45:59.158Z,102083.31
2018-09-01T20:48:31.327Z,102209.17
2018-09-01T20:51:12.282Z,102208.91
2018-09-01T20:53:56.207Z,102209.55
2018-09-01T20:56:32.598Z,102219.39
2018-09-01T20:59:01.542Z,102209.02
2018-09-01T21:01:40.866Z,102218.02
2018-09-01T21:04:11.283Z,102220.80
2018-09-01T21:06:40.069Z,102218.32
2018-09-01T21:09:10.527Z,102219.38
2018-09-01T21:11:41.107Z,102224.88
2018-09-01T21:14:19.679Z,102226.71
2018-09-01T21:16:48.419Z,102227.77
2018-09-01T21:19:18.850Z,102230.15
2018-09-01T21:21:48.346Z,102232.92
2018-09-01T21:24:28.300Z,102236.17
2018-09-01T21:26:59.174Z,102238.95
2018-09-01T21:29:32.074Z,102233.81
2018-09-01T21:32:03.731Z,102235.80
2018-09-01T21:34:32.366Z,102234.59
2018-09-01T21:37:05.072Z,102188.57
2018-09-01T21:42:29.186Z,102245.06
2018-09-01T21:45:09.297Z,102247.38
2018-09-01T21:50:19.100Z,102244.63
2018-09-01T21:52:49.498Z,102245.67
2018-09-01T21:55:19.984Z,102242.20
2018-09-01T21:57:48.970Z,102242.65
2018-09-01T22:00:18.640Z,102246.68
2018-09-01T22:02:59.939Z,102247.67
2018-09-01T22:05:29.206Z,102246.00
2018-09-01T22:07:58.431Z,102246.91
2018-09-01T22:10:27.202Z,102250.48
2018-09-01T22:12:57.170Z,102255.79
2018-09-01T22:15:28.239Z,102261.26
2018-09-01T22:17:57.497Z,102257.73
2018-09-01T22:20:36.282Z,102253.87
2018-09-01T22:23:21.066Z,102177.67
2018-09-01T22:25:59.983Z,102244.80
2018-09-01T22:28:31.031Z,102246.67
2018-09-01T22:31:05.790Z,102254.73
2018-09-01T22:33:48.130Z,102251.37
2018-09-01T22:36:28.498Z,102251.47
2018-09-01T22:39:04.491Z,102254.34
2018-09-01T22:41:51.862Z,102262.29
2018-09-01T22:44:26.733Z,102254.66
2018-09-01T22:47:10.297Z,102268.13
2018-09-01T22:49:39.234Z,102265.15
2018-09-01T22:52:26.330Z,102272.31
2018-09-01T22:54:57.454Z,102191.83
2018-09-01T22:57:27.439Z,102266.39
2018-09-01T23:00:11.112Z,102271.69
2018-09-01T23:02:42.353Z,102271.90
2018-09-01T23:05:11.342Z,102269.30
2018-09-01T23:07:43.399Z,102275.58
2018-09-01T23:10:12.345Z,102280.98
2018-09-01T23:12:43.970Z,102232.67
2018-09-01T23:15:14.385Z,102231.02
2018-09-01T23:17:43.202Z,102292.23
2018-09-01T23:20:13.461Z,102291.00
2018-09-01T23:22:52.717Z,102288.50
2018-09-01T23:25:23.926Z,102295.52
2018-09-01T23:27:54.046Z,102298.22
2018-09-01T23:30:29.182Z,102297.38
2018-09-01T23:32:59.927Z,102295.62
2018-09-01T23:35:29.262Z,102299.09
2018-09-01T23:38:03.678Z,102285.45
2018-09-01T23:40:52.634Z,102302.47
2018-09-01T23:43:21.465Z,102298.80
2018-09-01T23:45:53.974Z,102304.87
2018-09-01T23:48:28.466Z,102303.89
2018-09-01T23:51:03.415Z,102303.30
2018-09-01T23:53:33.982Z,102307.96
2018-09-01T23:56:14.975Z,102318.78
2018-09-01T23:58:43.975Z,102304.81
